Portada
METAR-TAF:

METAR-TAF

Aeroports :

Aeroport Internacional de Gafsa

Gafsa, Tunísia

latitud: 34-25N, longitud: 008-49E, altitud: 313 m

Observació

L'informe es va fer fa 1 hora i 12 minuts, a les 15:00 UTC
Vent 16 kt del Oest/Sud-Oest
Temperatura 20°C
Humitat 37%
Pressió 1013 hPa
Visibilitat 10 km o més
Cel ennuvolat a una alçada de 2600 ft

METAR: DTTF 261500Z 25016KT 9999 BKN026 20/05 Q1013 NOSIG

Hora: 17:12 (16:12 UTC)

Pronòstic

L'informe es va fer fa 1 hora i 12 minuts, a les 15:00 UTC
Pronòstic vàlid del 26 a les 16 UTC al 27 a les 01 UTC
Vent 16 kt del Oest/Sud-Oest
Visibilitat 10 km o més
Cel ennuvolat a una alçada de 2600 ft
Temporalment
l' 26 a les 16 UTC al 26 a les 23 UTC
Vent 15 kt amb direcció variable amb ràfegues de 25 kt
Visibilitat: 4000 m
Escasses núvols a una alçada de 3000 ft, Cumulonimbus.
tempesta, xàfecs de pluja

TAF: DTTF 261500Z 2616/2701 25016KT 9999 BKN026 TEMPO 2616/2623 VRB15G25KT 4000 TS SHRA FEW030CB

Observacions i pronòstics meteorològics de més de 4000 aeroports (METAR i TAF).

Les estacions disponibles són els punts grocs i vermells al mapa.

Posi el ratolí al punt desitjat per veure el nom de l'estació.

Feu clic per veure les observacions i els pronòstics meteorològics.

Per canviar el mapa: feu clic els botons verds amb una creu de color negre per apropar; al botó verd amb un guió per allunyar la imatge; o en les fletxes verdes per a mapes adjacents.


METAR-TAF: